createdAt,value
2019-06-07T00:00:53.750Z,3.95
2019-06-07T00:04:58.045Z,4.17
2019-06-07T00:09:02.413Z,4.60
2019-06-07T00:13:06.931Z,4.70
2019-06-07T00:17:14.100Z,4.35
2019-06-07T00:21:20.139Z,5.83
2019-06-07T00:25:24.423Z,4.05
2019-06-07T00:29:29.147Z,3.58
2019-06-07T00:33:33.455Z,3.67
2019-06-07T00:37:37.877Z,4.55
2019-06-07T00:41:42.176Z,3.92
2019-06-07T00:45:46.605Z,3.52
2019-06-07T00:49:51.129Z,4.65
2019-06-07T00:53:55.775Z,3.95
2019-06-07T00:58:00.095Z,3.55
2019-06-07T01:02:05.520Z,4.00
2019-06-07T01:06:10.134Z,3.40
2019-06-07T01:10:22.854Z,3.83
2019-06-07T01:14:25.336Z,2.95
2019-06-07T01:18:41.013Z,2.42
2019-06-07T01:22:34.809Z,3.62
2019-06-07T01:26:39.097Z,3.12
2019-06-07T01:30:43.582Z,3.40
2019-06-07T01:34:47.886Z,3.40
2019-06-07T01:38:52.463Z,2.80
2019-06-07T01:42:56.789Z,2.17
2019-06-07T01:47:01.126Z,2.15
2019-06-07T01:51:05.457Z,2.27
2019-06-07T01:55:11.148Z,2.55
2019-06-07T01:59:15.442Z,3.08
2019-06-07T02:03:22.286Z,4.90
2019-06-07T02:07:30.329Z,2.30
2019-06-07T02:11:33.508Z,2.40
2019-06-07T02:15:38.117Z,2.27
2019-06-07T02:19:42.750Z,3.60
2019-06-07T02:23:47.039Z,2.27
2019-06-07T02:27:51.341Z,2.58
2019-06-07T02:31:55.856Z,2.45
2019-06-07T02:36:00.191Z,2.92
2019-06-07T02:40:05.365Z,2.33
2019-06-07T02:44:09.852Z,4.53
2019-06-07T02:48:14.165Z,2.50
2019-06-07T02:52:18.597Z,2.70
2019-06-07T02:56:53.911Z,2.33
2019-06-07T03:01:08.539Z,2.15
2019-06-07T03:05:03.684Z,2.83
2019-06-07T03:09:09.564Z,3.10
2019-06-07T03:13:17.781Z,2.70
2019-06-07T03:17:41.177Z,2.87
2019-06-07T03:21:46.108Z,2.60
2019-06-07T03:25:52.918Z,2.85
2019-06-07T03:29:57.257Z,2.27
2019-06-07T03:34:01.577Z,3.08
2019-06-07T03:38:06.009Z,3.47
2019-06-07T03:42:10.422Z,2.87
2019-06-07T03:46:14.989Z,3.25
2019-06-07T03:50:19.307Z,4.00
2019-06-07T03:54:23.824Z,4.30
2019-06-07T03:58:31.937Z,4.05
2019-06-07T04:02:40.832Z,3.75
2019-06-07T04:06:42.460Z,4.30
2019-06-07T04:10:59.251Z,2.70
2019-06-07T04:14:52.440Z,3.05
2019-06-07T04:18:56.766Z,3.15
2019-06-07T04:23:01.243Z,3.00
2019-06-07T04:27:05.546Z,3.40
2019-06-07T04:31:09.960Z,3.22
2019-06-07T04:35:14.447Z,3.62
2019-06-07T04:39:20.952Z,3.45
2019-06-07T04:43:30.220Z,3.80
2019-06-07T04:47:38.874Z,3.90
2019-06-07T04:51:45.134Z,3.58
2019-06-07T04:55:49.533Z,3.98
2019-06-07T05:00:11.921Z,5.50
2019-06-07T05:04:00.036Z,12.30
2019-06-07T05:08:07.617Z,3.83
2019-06-07T05:12:10.742Z,3.00
2019-06-07T05:16:15.064Z,4.35
2019-06-07T05:20:19.703Z,3.50
2019-06-07T05:24:24.411Z,3.17
2019-06-07T05:28:29.995Z,3.40
2019-06-07T05:32:36.788Z,3.33
2019-06-07T05:36:44.292Z,2.50
2019-06-07T05:40:48.582Z,3.30
2019-06-07T05:44:53.009Z,2.97
2019-06-07T05:48:57.365Z,3.80
2019-06-07T05:53:01.718Z,2.70
2019-06-07T05:57:06.365Z,3.80
2019-06-07T06:01:43.029Z,4.30
2019-06-07T06:05:32.556Z,2.77
2019-06-07T06:09:23.086Z,3.33
2019-06-07T06:13:27.423Z,3.15
2019-06-07T06:17:31.848Z,2.85
2019-06-07T06:21:36.257Z,2.30
2019-06-07T06:25:42.738Z,4.60
2019-06-07T06:29:50.101Z,3.27
2019-06-07T06:33:52.626Z,2.72
2019-06-07T06:37:56.953Z,3.35
2019-06-07T06:42:03.833Z,4.53
2019-06-07T06:46:07.311Z,3.10
2019-06-07T06:50:12.260Z,4.12
2019-06-07T06:54:35.679Z,5.05
2019-06-07T06:58:22.667Z,3.77
2019-06-07T07:02:26.993Z,3.22
2019-06-07T07:06:31.607Z,3.77
2019-06-07T07:10:41.276Z,3.67
2019-06-07T07:14:47.884Z,4.70
2019-06-07T07:18:54.520Z,3.55
2019-06-07T07:22:57.696Z,3.40
2019-06-07T07:27:02.558Z,4.12
2019-06-07T07:31:06.858Z,3.52
2019-06-07T07:35:11.171Z,3.52
2019-06-07T07:39:15.570Z,2.70
2019-06-07T07:43:19.985Z,3.67
2019-06-07T07:47:24.319Z,3.20
2019-06-07T07:51:28.625Z,3.20
2019-06-07T07:55:32.970Z,3.00
2019-06-07T07:59:42.102Z,3.65
2019-06-07T08:03:43.576Z,3.55
2019-06-07T08:07:53.109Z,3.27
2019-06-07T08:12:00.072Z,2.95
2019-06-07T08:16:08.216Z,2.30
2019-06-07T08:20:06.780Z,3.35
2019-06-07T08:24:11.079Z,2.00
2019-06-07T08:28:15.409Z,4.17
2019-06-07T08:32:19.735Z,2.40
2019-06-07T08:36:40.719Z,3.40
2019-06-07T08:40:30.556Z,4.35
2019-06-07T08:44:34.916Z,3.70
2019-06-07T08:48:39.325Z,3.22
2019-06-07T08:52:43.645Z,3.30
2019-06-07T08:56:47.985Z,4.83
2019-06-07T09:00:53.593Z,3.92
2019-06-07T09:05:03.161Z,4.70
2019-06-07T09:09:05.999Z,3.77
2019-06-07T09:13:11.886Z,3.67
2019-06-07T09:17:16.880Z,4.17
2019-06-07T09:21:21.430Z,4.10
2019-06-07T09:25:26.053Z,4.22
2019-06-07T09:29:31.485Z,5.08
2019-06-07T09:33:35.938Z,4.62
2019-06-07T09:38:07.345Z,5.15
2019-06-07T09:41:50.137Z,4.00
2019-06-07T09:45:53.090Z,3.52
2019-06-07T09:50:02.366Z,4.35
2019-06-07T09:54:06.910Z,8.23
2019-06-07T09:58:48.374Z,5.90
2019-06-07T10:02:15.545Z,4.12
2019-06-07T10:06:19.911Z,4.33
2019-06-07T10:14:30.426Z,4.33
2019-06-07T10:18:34.998Z,6.83
2019-06-07T10:22:39.317Z,5.03
2019-06-07T10:26:43.999Z,6.58
2019-06-07T10:30:48.482Z,4.42
2019-06-07T10:34:52.895Z,5.90
2019-06-07T10:38:57.256Z,4.28
2019-06-07T10:43:02.675Z,5.72
2019-06-07T10:47:08.110Z,5.05
2019-06-07T10:51:14.724Z,7.10
2019-06-07T10:55:19.179Z,4.55
2019-06-07T10:59:23.747Z,6.40
2019-06-07T11:03:28.079Z,6.80
2019-06-07T11:07:33.031Z,6.17
2019-06-07T11:11:37.386Z,6.15
2019-06-07T11:15:41.727Z,6.22
2019-06-07T11:19:46.360Z,6.12
2019-06-07T11:23:50.675Z,5.75
2019-06-07T11:27:55.089Z,6.92
2019-06-07T11:31:59.497Z,6.20
2019-06-07T11:36:04.023Z,8.33
2019-06-07T11:40:27.738Z,7.83
2019-06-07T11:44:15.087Z,6.35
2019-06-07T11:48:19.517Z,9.03
2019-06-07T11:52:23.864Z,6.55
2019-06-07T11:56:28.397Z,7.10
2019-06-07T12:00:34.363Z,6.90
2019-06-07T12:04:38.916Z,6.33
2019-06-07T12:08:43.374Z,5.25
2019-06-07T12:12:48.283Z,6.50
2019-06-07T12:16:52.623Z,6.03
2019-06-07T12:20:57.283Z,5.40
2019-06-07T12:25:05.737Z,6.62
2019-06-07T12:29:08.206Z,6.80
2019-06-07T12:33:13.482Z,6.50
2019-06-07T12:37:21.082Z,6.85
2019-06-07T12:41:24.325Z,7.37
2019-06-07T12:45:45.420Z,7.97
2019-06-07T12:49:34.954Z,6.17
2019-06-07T12:53:39.321Z,8.65
2019-06-07T12:57:44.138Z,6.92
2019-06-07T13:01:48.487Z,6.97
2019-06-07T13:05:52.820Z,6.20
2019-06-07T13:09:57.175Z,6.97
2019-06-07T13:14:01.845Z,6.40
2019-06-07T13:18:06.451Z,5.33
2019-06-07T13:22:10.744Z,5.30
2019-06-07T13:26:16.736Z,4.70
2019-06-07T13:30:23.541Z,4.10
2019-06-07T13:34:28.138Z,4.30
2019-06-07T13:38:32.735Z,5.17
2019-06-07T13:42:37.200Z,3.22
2019-06-07T13:46:42.365Z,3.67
2019-06-07T13:50:47.066Z,3.10
2019-06-07T13:54:51.396Z,3.70
2019-06-07T13:58:55.748Z,4.62
2019-06-07T14:03:00.032Z,3.98
2019-06-07T14:07:05.329Z,3.47
2019-06-07T14:11:09.654Z,3.92
2019-06-07T14:15:15.291Z,3.42
2019-06-07T14:19:20.398Z,4.10
2019-06-07T14:23:42.336Z,3.35
2019-06-07T14:27:32.071Z,3.67
2019-06-07T14:31:36.368Z,3.77
2019-06-07T14:35:40.773Z,4.60
2019-06-07T14:39:45.095Z,5.03
2019-06-07T14:43:49.713Z,3.05
2019-06-07T14:47:54.203Z,2.83
2019-06-07T14:51:58.591Z,3.20
2019-06-07T14:56:03.663Z,3.25
2019-06-07T15:00:11.328Z,3.95
2019-06-07T15:04:15.346Z,2.98
2019-06-07T15:08:19.670Z,3.27
2019-06-07T15:12:25.440Z,3.40
2019-06-07T15:16:31.821Z,2.90
2019-06-07T15:20:36.490Z,3.62
2019-06-07T15:24:40.966Z,3.10
2019-06-07T15:28:45.505Z,2.40
2019-06-07T15:32:49.911Z,2.80
2019-06-07T15:36:54.390Z,2.98
2019-06-07T15:40:59.761Z,2.47
2019-06-07T15:45:04.510Z,2.62
2019-06-07T15:49:09.209Z,2.67
2019-06-07T15:53:13.708Z,2.40
2019-06-07T15:57:18.106Z,2.47
2019-06-07T16:01:22.551Z,2.45
2019-06-07T16:05:26.899Z,2.45
2019-06-07T16:09:32.395Z,2.42
2019-06-07T16:13:36.959Z,3.50
2019-06-07T16:17:42.074Z,3.08
2019-06-07T16:21:47.401Z,2.55
2019-06-07T16:25:51.819Z,2.60
2019-06-07T16:29:56.444Z,3.98
2019-06-07T16:34:01.065Z,3.33
2019-06-07T16:38:05.814Z,2.62
2019-06-07T16:42:10.166Z,3.02
2019-06-07T16:46:14.512Z,3.12
2019-06-07T16:50:19.722Z,2.72
2019-06-07T16:54:24.349Z,2.72
2019-06-07T16:58:28.771Z,3.10
2019-06-07T17:02:33.127Z,2.92
2019-06-07T17:06:37.638Z,5.72
2019-06-07T17:10:42.524Z,3.12
2019-06-07T17:14:47.224Z,7.53
2019-06-07T17:18:53.321Z,2.70
2019-06-07T17:22:57.900Z,2.65
2019-06-07T17:27:02.220Z,3.65
2019-06-07T17:31:06.578Z,3.55
2019-06-07T17:35:11.267Z,3.30
2019-06-07T17:39:15.590Z,2.87
2019-06-07T17:43:20.179Z,3.77
2019-06-07T17:47:24.528Z,3.12
2019-06-07T17:51:28.900Z,3.30
2019-06-07T17:55:34.941Z,2.72
2019-06-07T17:59:39.281Z,4.33
2019-06-07T18:03:45.095Z,4.05
2019-06-07T18:07:51.849Z,4.03
2019-06-07T18:11:56.861Z,3.47
2019-06-07T18:16:01.189Z,3.60
2019-06-07T18:20:06.326Z,2.75
2019-06-07T18:24:10.807Z,2.92
2019-06-07T18:28:15.471Z,2.92
2019-06-07T18:32:19.902Z,5.85
2019-06-07T18:36:24.399Z,3.77
2019-06-07T18:40:28.735Z,3.15
2019-06-07T18:44:33.555Z,3.20
2019-06-07T18:48:37.865Z,2.67
2019-06-07T18:52:43.875Z,3.42
2019-06-07T18:56:48.793Z,3.55
2019-06-07T19:00:53.780Z,2.80
2019-06-07T19:04:58.478Z,3.02
2019-06-07T19:09:04.233Z,3.58
2019-06-07T19:13:08.527Z,4.17
2019-06-07T19:17:13.058Z,3.95
2019-06-07T19:21:17.382Z,4.37
2019-06-07T19:25:21.714Z,4.47
2019-06-07T19:29:26.128Z,3.40
2019-06-07T19:33:30.432Z,3.55
2019-06-07T19:37:35.047Z,3.27
2019-06-07T19:41:39.425Z,3.77
2019-06-07T19:45:44.585Z,3.40
2019-06-07T19:49:48.915Z,3.60
2019-06-07T19:53:53.246Z,4.05
2019-06-07T19:57:57.610Z,4.08
2019-06-07T20:02:02.231Z,3.80
2019-06-07T20:06:07.070Z,4.97
2019-06-07T20:10:12.166Z,6.33
2019-06-07T20:14:16.490Z,3.50
2019-06-07T20:18:20.900Z,5.22
2019-06-07T20:22:25.200Z,5.37
2019-06-07T20:26:29.555Z,4.10
2019-06-07T20:30:33.867Z,3.47
2019-06-07T20:34:38.199Z,4.15
2019-06-07T20:38:42.513Z,4.78
2019-06-07T20:42:46.922Z,5.15
2019-06-07T20:46:51.248Z,3.77
2019-06-07T20:50:55.589Z,4.67
2019-06-07T20:55:00.553Z,4.45
2019-06-07T20:59:06.745Z,4.12
2019-06-07T21:03:11.133Z,4.40
2019-06-07T21:07:15.433Z,5.42
2019-06-07T21:11:19.787Z,4.58
2019-06-07T21:15:24.112Z,5.37
2019-06-07T21:19:28.475Z,4.95
2019-06-07T21:23:32.783Z,4.20
2019-06-07T21:27:37.131Z,4.60
2019-06-07T21:31:41.461Z,5.12
2019-06-07T21:35:45.776Z,8.18
2019-06-07T21:39:50.365Z,4.87
2019-06-07T21:43:54.691Z,4.70
2019-06-07T21:47:59.012Z,6.58
2019-06-07T21:52:04.382Z,5.70
2019-06-07T21:56:09.142Z,4.22
2019-06-07T22:00:17.568Z,4.20
2019-06-07T22:04:21.892Z,4.62
2019-06-07T22:08:26.577Z,5.28
2019-06-07T22:12:30.891Z,4.15
2019-06-07T22:16:35.224Z,5.12
2019-06-07T22:20:39.522Z,4.80
2019-06-07T22:24:44.444Z,5.85
2019-06-07T22:28:49.069Z,4.75
2019-06-07T22:32:53.411Z,5.50
2019-06-07T22:36:59.058Z,4.87
2019-06-07T22:41:03.503Z,6.33
2019-06-07T22:45:10.818Z,5.22
2019-06-07T22:49:15.412Z,5.20
2019-06-07T22:53:18.596Z,4.78
2019-06-07T22:57:25.501Z,4.20
2019-06-07T23:01:29.812Z,4.97
2019-06-07T23:05:34.128Z,4.28
2019-06-07T23:09:38.463Z,5.80
2019-06-07T23:13:42.757Z,4.80
2019-06-07T23:17:47.094Z,5.03
2019-06-07T23:21:51.423Z,4.72
2019-06-07T23:25:55.727Z,6.45
2019-06-07T23:30:00.084Z,4.30
2019-06-07T23:34:04.408Z,5.62
2019-06-07T23:38:08.946Z,4.83
2019-06-07T23:42:13.383Z,6.10
2019-06-07T23:46:17.782Z,5.08
2019-06-07T23:50:22.350Z,4.15
2019-06-07T23:54:26.695Z,4.58
2019-06-07T23:58:31.219Z,4.05
